Time;durP1;ratioP1;P1;durP2;ratioP2;P2;SDS_P1;SDS_P2;PMS_P1;PMS_P2;Temp;Humidity;BMP_temperature;BMP_pressure;BME280_temperature;BME280_humidity;BME280_pressure;Samples;Min_cycle;Max_cycle;Signal;HPM_P1;HPM_P2
2022/01/24 00:01:53;;;;;;;11.70;8.30;;;5.70;99.90;;;;;;5057476;28;20053;-76
2022/01/24 00:04:21;;;;;;;12.33;8.57;;;5.70;99.90;;;;;;5040278;28;20053;-77
2022/01/24 00:06:47;;;;;;;13.13;8.33;;;5.70;99.90;;;;;;5061155;28;20053;-77
2022/01/24 00:09:13;;;;;;;15.13;9.23;;;5.80;99.90;;;;;;5039668;28;20061;-77
2022/01/24 00:12:13;;;;;;;15.57;8.40;;;5.80;99.90;;;;;;5026107;28;20044;-77
2022/01/24 00:17:16;;;;;;;13.97;8.63;;;5.70;99.90;;;;;;5056026;28;20057;-77
2022/01/24 00:27:55;;;;;;;13.50;9.73;;;5.70;99.90;;;;;;5052375;28;20045;-77
2022/01/24 00:30:21;;;;;;;17.30;10.20;;;5.70;99.90;;;;;;5039316;28;20037;-77
2022/01/24 00:32:47;;;;;;;15.07;9.60;;;5.70;99.90;;;;;;5039382;28;20048;-77
2022/01/24 00:35:13;;;;;;;18.07;10.93;;;5.70;99.90;;;;;;5045381;28;20049;-78
2022/01/24 00:37:39;;;;;;;14.80;10.07;;;5.70;99.90;;;;;;5022684;28;20036;-77
2022/01/24 00:40:06;;;;;;;18.43;10.03;;;5.70;99.90;;;;;;5056657;28;20063;-77
2022/01/24 00:42:46;;;;;;;16.00;9.53;;;5.60;99.90;;;;;;5038958;28;20095;-78
2022/01/24 00:45:15;;;;;;;18.83;10.97;;;5.60;99.90;;;;;;5056168;28;20045;-78
2022/01/24 00:48:20;;;;;;;15.83;10.70;;;5.60;99.90;;;;;;5040346;28;20048;-77
2022/01/24 00:55:47;;;;;;;16.60;10.00;;;5.70;99.90;;;;;;5055464;28;20117;-77
2022/01/24 00:58:13;;;;;;;16.73;10.30;;;5.70;99.90;;;;;;5057451;28;20037;-77
2022/01/24 01:00:40;;;;;;;15.17;9.47;;;5.70;99.90;;;;;;5066532;28;20076;-78
2022/01/24 01:03:06;;;;;;;17.63;10.10;;;5.70;99.90;;;;;;5072664;28;20049;-78
2022/01/24 01:18:40;;;;;;;26.13;13.47;;;5.60;99.90;;;;;;5041592;28;20045;-78
2022/01/24 01:21:11;;;;;;;25.90;13.77;;;5.60;99.90;;;;;;5025240;28;20044;-77
2022/01/24 01:23:42;;;;;;;22.23;13.77;;;5.60;99.90;;;;;;5041105;28;20071;-77
2022/01/24 01:26:21;;;;;;;20.27;13.07;;;5.60;99.90;;;;;;5057886;28;20060;-77
2022/01/24 01:28:51;;;;;;;22.03;11.73;;;5.60;99.90;;;;;;5038161;28;20402;-77
2022/01/24 01:31:38;;;;;;;22.27;13.03;;;5.60;99.90;;;;;;5038167;28;20536;-77
2022/01/24 01:34:20;;;;;;;21.93;12.17;;;5.60;99.90;;;;;;5049144;28;20079;-78
2022/01/24 01:55:45;;;;;;;23.57;13.00;;;5.50;99.90;;;;;;5055318;28;20049;-77
2022/01/24 01:58:13;;;;;;;20.17;11.93;;;5.50;99.90;;;;;;5056650;28;20051;-77
2022/01/24 02:00:43;;;;;;;23.83;12.97;;;5.50;99.90;;;;;;5056550;28;20108;-77
2022/01/24 02:03:09;;;;;;;23.00;12.40;;;5.60;99.90;;;;;;5055015;28;20052;-77
2022/01/24 02:05:36;;;;;;;19.97;11.27;;;5.60;99.90;;;;;;5024590;28;20083;-77
2022/01/24 02:08:03;;;;;;;19.80;11.63;;;5.50;99.90;;;;;;5054595;28;20044;-77
2022/01/24 02:10:29;;;;;;;18.80;10.67;;;5.50;99.90;;;;;;5055055;28;20060;-78
2022/01/24 02:12:57;;;;;;;18.77;11.40;;;5.50;99.90;;;;;;5070973;28;20072;-76
2022/01/24 02:15:54;;;;;;;17.30;10.37;;;5.50;99.90;;;;;;5038059;28;20048;-77
2022/01/24 02:21:39;;;;;;;18.23;11.27;;;5.50;99.90;;;;;;5039693;28;20041;-77
2022/01/24 02:26:04;;;;;;;17.53;11.07;;;5.50;99.90;;;;;;5021278;28;20045;-77
2022/01/24 02:28:41;;;;;;;18.77;11.33;;;5.50;99.90;;;;;;5030439;28;20037;-77
2022/01/24 02:31:25;;;;;;;17.87;10.67;;;5.50;99.90;;;;;;5048220;28;20041;-78
2022/01/24 02:33:51;;;;;;;23.00;11.70;;;5.50;99.90;;;;;;5026146;28;20049;-78
2022/01/24 02:36:23;;;;;;;23.03;12.20;;;5.50;99.90;;;;;;5059274;28;20048;-79
2022/01/24 02:39:09;;;;;;;20.10;11.40;;;5.50;99.90;;;;;;5043782;28;20111;-78
2022/01/24 02:49:48;;;;;;;19.53;12.57;;;5.40;99.90;;;;;;5054757;28;20032;-78
2022/01/24 02:52:14;;;;;;;23.27;12.23;;;5.40;99.90;;;;;;5037417;28;20041;-78
2022/01/24 02:54:41;;;;;;;19.07;11.83;;;5.40;99.90;;;;;;5022524;28;20064;-78
2022/01/24 02:57:08;;;;;;;21.23;11.90;;;5.40;99.90;;;;;;5055364;28;20045;-78
2022/01/24 02:59:35;;;;;;;19.93;11.53;;;5.40;99.90;;;;;;5053774;28;20049;-78
2022/01/24 03:02:02;;;;;;;18.43;11.50;;;5.40;99.90;;;;;;5053969;28;20045;-78
2022/01/24 03:04:27;;;;;;;18.17;12.13;;;5.40;99.90;;;;;;5037318;28;20049;-77
2022/01/24 03:06:53;;;;;;;21.27;12.27;;;5.40;99.90;;;;;;5042359;28;20065;-77
2022/01/24 03:09:22;;;;;;;19.67;11.80;;;5.40;99.90;;;;;;5020826;28;20094;-77
2022/01/24 03:12:13;;;;;;;19.77;11.53;;;5.40;99.90;;;;;;5054274;28;20049;-77
2022/01/24 03:14:36;;;;;;;21.93;12.67;;;5.40;99.90;;;;;;5053601;28;20048;-78
2022/01/24 03:17:04;;;;;;;19.03;12.43;;;5.40;99.90;;;;;;5020979;28;20075;-77
2022/01/24 03:19:30;;;;;;;22.23;12.73;;;5.50;99.90;;;;;;5037736;28;20075;-78
2022/01/24 03:21:56;;;;;;;24.17;13.07;;;5.40;99.90;;;;;;5056486;28;20041;-77
2022/01/24 03:24:22;;;;;;;23.60;14.33;;;5.40;99.90;;;;;;5048102;28;20037;-78
2022/01/24 03:26:48;;;;;;;26.30;14.00;;;5.40;99.90;;;;;;5054410;28;20120;-78
2022/01/24 03:29:14;;;;;;;24.40;13.77;;;5.40;99.90;;;;;;5036864;28;20164;-77
2022/01/24 03:31:42;;;;;;;22.20;13.73;;;5.50;99.90;;;;;;5021290;28;20057;-78
2022/01/24 03:34:09;;;;;;;22.67;12.67;;;5.50;99.90;;;;;;5036995;28;20053;-77
2022/01/24 03:36:34;;;;;;;25.27;14.70;;;5.50;99.90;;;;;;5037641;28;20056;-78
2022/01/24 03:39:01;;;;;;;24.40;13.73;;;5.50;99.90;;;;;;5054974;28;20044;-78
2022/01/24 03:41:26;;;;;;;24.80;14.63;;;5.50;99.90;;;;;;5053947;28;20071;-78
2022/01/24 03:43:53;;;;;;;23.20;14.80;;;5.50;99.90;;;;;;5032575;28;20117;-78
2022/01/24 03:48:51;;;;;;;23.37;14.13;;;5.40;99.90;;;;;;5054389;28;21316;-78
2022/01/24 03:51:18;;;;;;;25.17;14.47;;;5.40;99.90;;;;;;5056138;28;20412;-79
2022/01/24 03:53:45;;;;;;;27.10;14.20;;;5.40;99.90;;;;;;5025933;28;20736;-79
2022/01/24 03:56:11;;;;;;;22.77;13.20;;;5.50;99.90;;;;;;5040441;28;20075;-78
2022/01/24 03:58:37;;;;;;;23.90;13.90;;;5.50;99.90;;;;;;5040809;28;20072;-78
2022/01/24 04:01:06;;;;;;;22.60;14.20;;;5.50;99.90;;;;;;5040335;28;20073;-78
2022/01/24 04:03:33;;;;;;;22.10;13.60;;;5.50;99.90;;;;;;5056851;28;20100;-79
2022/01/24 04:05:58;;;;;;;22.70;13.57;;;5.50;99.90;;;;;;5062798;28;20059;-79
2022/01/24 04:08:24;;;;;;;25.00;15.13;;;5.50;99.90;;;;;;5039874;28;20416;-79
2022/01/24 04:10:54;;;;;;;22.50;13.57;;;5.40;99.90;;;;;;5056981;28;20041;-79
2022/01/24 04:13:44;;;;;;;25.20;15.57;;;5.50;99.90;;;;;;5040739;28;20057;-79
2022/01/24 04:23:47;;;;;;;24.63;14.77;;;5.50;99.90;;;;;;5056369;28;20049;-78
2022/01/24 04:26:12;;;;;;;26.37;14.93;;;5.50;99.90;;;;;;5056559;28;20128;-79
2022/01/24 04:28:38;;;;;;;24.23;14.40;;;5.40;99.90;;;;;;5023717;28;21019;-78
2022/01/24 04:31:04;;;;;;;24.40;14.90;;;5.40;99.90;;;;;;5056701;28;20045;-78
2022/01/24 04:33:30;;;;;;;27.30;15.50;;;5.40;99.90;;;;;;5056263;28;20464;-78
2022/01/24 04:35:56;;;;;;;28.77;16.03;;;5.40;99.90;;;;;;5051058;28;20502;-78
2022/01/24 04:38:21;;;;;;;28.33;15.77;;;5.40;99.90;;;;;;5006639;28;20095;-78
2022/01/24 04:40:47;;;;;;;23.43;14.50;;;5.40;99.90;;;;;;5047993;28;20071;-78
2022/01/24 04:43:30;;;;;;;23.10;13.37;;;5.40;99.90;;;;;;5043692;28;20037;-78
2022/01/24 04:51:27;;;;;;;23.83;13.57;;;5.40;99.90;;;;;;5064048;28;20064;-78
2022/01/24 04:56:42;;;;;;;27.40;15.20;;;5.30;99.90;;;;;;5012341;28;20052;-78
2022/01/24 04:59:09;;;;;;;25.00;14.17;;;5.20;99.90;;;;;;5038904;28;20058;-77
2022/01/24 05:01:35;;;;;;;26.47;14.60;;;5.30;99.90;;;;;;5040111;28;20190;-78
2022/01/24 05:04:01;;;;;;;26.00;14.70;;;5.30;99.90;;;;;;5068807;28;20048;-78
2022/01/24 05:06:27;;;;;;;24.10;14.57;;;5.40;99.90;;;;;;5022998;28;20041;-78
2022/01/24 05:08:54;;;;;;;23.40;14.33;;;5.30;99.90;;;;;;5040285;28;20037;-78
2022/01/24 05:11:32;;;;;;;24.33;14.30;;;5.30;99.90;;;;;;5005390;28;20049;-78
2022/01/24 05:24:46;;;;;;;25.00;14.60;;;5.30;99.90;;;;;;5024787;28;20079;-78
2022/01/24 05:27:12;;;;;;;23.83;14.47;;;5.40;99.90;;;;;;5055470;28;20056;-77
2022/01/24 05:29:37;;;;;;;25.13;14.47;;;5.30;99.90;;;;;;5063092;28;20175;-79
2022/01/24 05:32:05;;;;;;;26.67;15.30;;;5.30;99.90;;;;;;5055391;28;20045;-79
2022/01/24 05:34:31;;;;;;;26.33;14.87;;;5.30;99.90;;;;;;5038749;28;20061;-79
2022/01/24 05:36:57;;;;;;;25.33;13.53;;;5.40;99.90;;;;;;5055283;28;20055;-79
2022/01/24 05:39:23;;;;;;;24.50;13.97;;;5.30;99.90;;;;;;5038192;28;20048;-78
2022/01/24 05:41:48;;;;;;;25.17;14.10;;;5.30;99.90;;;;;;5055097;28;20052;-78
2022/01/24 05:44:14;;;;;;;23.93;14.80;;;5.30;99.90;;;;;;5022544;28;20769;-78
2022/01/24 05:46:40;;;;;;;25.77;14.60;;;5.30;99.90;;;;;;5040001;28;20037;-79
2022/01/24 05:49:06;;;;;;;26.73;13.97;;;5.30;99.90;;;;;;5055325;28;20049;-78
2022/01/24 05:51:32;;;;;;;24.27;13.63;;;5.30;99.90;;;;;;5041988;28;20458;-78
2022/01/24 05:53:58;;;;;;;26.50;14.93;;;5.30;99.90;;;;;;5055671;28;20060;-78
2022/01/24 05:56:24;;;;;;;23.97;13.97;;;5.30;99.90;;;;;;5055450;28;20044;-78
2022/01/24 05:58:49;;;;;;;23.57;14.47;;;5.40;99.90;;;;;;5058719;28;20088;-78
2022/01/24 06:01:16;;;;;;;22.37;13.13;;;5.30;99.90;;;;;;5038398;28;20099;-78
2022/01/24 06:03:41;;;;;;;22.70;13.63;;;5.30;99.90;;;;;;5038049;28;20167;-79
2022/01/24 06:06:08;;;;;;;23.97;14.50;;;5.30;99.90;;;;;;5055408;28;20053;-79
2022/01/24 06:08:34;;;;;;;26.43;14.80;;;5.30;99.90;;;;;;5038245;28;20215;-78
2022/01/24 06:11:00;;;;;;;23.83;13.70;;;5.30;99.90;;;;;;5054945;28;20480;-79
2022/01/24 06:13:26;;;;;;;24.90;15.10;;;5.30;99.90;;;;;;5021871;28;20127;-78
2022/01/24 06:15:53;;;;;;;26.20;14.00;;;5.30;99.90;;;;;;5047248;28;20120;-78
2022/01/24 06:18:20;;;;;;;25.03;15.47;;;5.20;99.90;;;;;;5038438;28;20079;-78
2022/01/24 06:20:47;;;;;;;23.23;13.97;;;5.30;99.90;;;;;;5038049;28;20036;-78
2022/01/24 06:23:16;;;;;;;23.17;14.43;;;5.30;99.90;;;;;;5021992;28;20140;-78
2022/01/24 06:25:43;;;;;;;28.03;14.83;;;5.30;99.90;;;;;;5071089;28;20036;-78
2022/01/24 06:28:09;;;;;;;23.23;14.10;;;5.20;99.90;;;;;;5055047;28;20502;-78
2022/01/24 06:30:35;;;;;;;21.83;13.60;;;5.30;99.90;;;;;;5049648;28;20052;-78
2022/01/24 06:33:01;;;;;;;24.67;13.67;;;5.20;99.90;;;;;;5053166;28;20041;-78
2022/01/24 06:35:27;;;;;;;27.27;14.67;;;5.20;99.90;;;;;;5037093;28;20056;-81
2022/01/24 06:37:53;;;;;;;23.23;13.50;;;5.20;99.90;;;;;;5043251;28;20049;-80
2022/01/24 06:40:19;;;;;;;25.33;14.17;;;5.20;99.90;;;;;;5003719;28;20210;-80
2022/01/24 06:42:45;;;;;;;23.90;14.60;;;5.20;99.90;;;;;;5003949;28;20051;-80
2022/01/24 06:45:11;;;;;;;23.63;13.73;;;5.20;99.90;;;;;;5021997;28;20041;-84
2022/01/24 06:47:37;;;;;;;25.10;14.20;;;5.20;99.90;;;;;;5043277;28;20509;-83
2022/01/24 06:50:05;;;;;;;24.97;13.37;;;5.20;99.90;;;;;;5060974;28;20404;-80
2022/01/24 06:52:30;;;;;;;22.87;13.60;;;5.20;99.90;;;;;;5032806;28;20062;-78
2022/01/24 06:54:56;;;;;;;22.90;13.33;;;5.20;99.90;;;;;;5006043;28;20092;-77
2022/01/24 06:57:24;;;;;;;23.73;13.47;;;5.20;99.90;;;;;;5019406;28;20493;-77
2022/01/24 06:59:50;;;;;;;25.97;14.50;;;5.20;99.90;;;;;;5050677;28;20109;-77
2022/01/24 07:02:16;;;;;;;23.93;13.60;;;5.20;99.90;;;;;;5025495;28;20142;-77
2022/01/24 07:04:43;;;;;;;24.70;14.27;;;5.20;99.90;;;;;;5030121;28;20052;-76
2022/01/24 07:07:10;;;;;;;25.80;14.67;;;5.20;99.90;;;;;;5049747;28;20510;-77
2022/01/24 07:09:36;;;;;;;22.57;13.37;;;5.20;99.90;;;;;;5052481;28;20040;-77
2022/01/24 07:12:03;;;;;;;23.13;13.50;;;5.20;99.90;;;;;;5027123;28;20045;-77
2022/01/24 07:14:29;;;;;;;24.77;13.23;;;5.20;99.90;;;;;;5048103;28;20045;-78
2022/01/24 07:19:22;;;;;;;22.10;13.73;;;5.20;99.90;;;;;;5053029;28;20033;-77
2022/01/24 07:21:48;;;;;;;25.97;13.67;;;5.30;99.90;;;;;;5068583;28;20384;-78
2022/01/24 07:24:14;;;;;;;25.23;13.93;;;5.20;99.90;;;;;;5035974;28;20568;-77
2022/01/24 07:26:40;;;;;;;24.30;14.57;;;5.20;99.90;;;;;;5019631;28;20378;-77
2022/01/24 07:29:05;;;;;;;21.30;12.67;;;5.20;99.90;;;;;;5038576;28;20041;-77
2022/01/24 07:31:31;;;;;;;25.73;14.00;;;5.30;99.90;;;;;;5040565;28;20037;-80
2022/01/24 07:33:57;;;;;;;27.97;15.53;;;5.20;99.90;;;;;;5041101;28;20047;-75
2022/01/24 07:36:24;;;;;;;32.53;17.47;;;5.20;99.90;;;;;;5072187;28;20041;-77
2022/01/24 07:38:51;;;;;;;40.73;20.87;;;5.20;99.90;;;;;;5071700;28;20675;-77
2022/01/24 07:41:23;;;;;;;45.47;21.67;;;5.20;99.90;;;;;;5057742;28;20041;-76
2022/01/24 07:43:49;;;;;;;;;;;5.20;99.90;;;;;;5044671;28;20045;-77
2022/01/24 07:46:14;;;;;;;48.03;23.10;;;5.20;99.90;;;;;;5035008;28;19932;-77
2022/01/24 07:48:40;;;;;;;48.20;24.63;;;5.20;99.90;;;;;;5055132;28;20507;-76
2022/01/24 07:51:06;;;;;;;50.03;24.83;;;5.20;99.90;;;;;;5088735;28;20044;-76
2022/01/24 07:53:32;;;;;;;52.83;26.57;;;5.30;99.90;;;;;;5023659;28;20045;-77
2022/01/24 07:55:57;;;;;;;51.20;26.10;;;5.30;99.90;;;;;;5039607;28;20060;-76
2022/01/24 07:58:23;;;;;;;58.03;28.47;;;5.30;99.90;;;;;;5043165;28;20045;-77
2022/01/24 08:00:49;;;;;;;53.37;27.47;;;5.30;99.90;;;;;;5049270;28;20106;-77
2022/01/24 08:03:15;;;;;;;61.10;31.10;;;5.30;99.90;;;;;;5026480;28;20106;-76
2022/01/24 08:05:42;;;;;;;63.43;30.43;;;5.30;99.90;;;;;;5016037;28;20412;-78
2022/01/24 08:08:08;;;;;;;62.03;30.60;;;5.30;99.90;;;;;;5031881;28;20049;-77
2022/01/24 08:10:35;;;;;;;64.83;30.73;;;5.30;99.90;;;;;;5045057;28;20049;-78
2022/01/24 08:13:01;;;;;;;60.47;30.27;;;5.30;99.90;;;;;;5031326;28;20048;-76
2022/01/24 08:15:27;;;;;;;60.50;28.83;;;5.30;99.90;;;;;;5016283;28;20428;-77
2022/01/24 08:17:53;;;;;;;75.10;31.93;;;5.30;99.90;;;;;;5048800;28;20061;-77
2022/01/24 08:20:20;;;;;;;64.40;32.00;;;5.30;99.90;;;;;;5015046;28;20045;-77
2022/01/24 08:22:46;;;;;;;66.40;32.23;;;5.30;99.90;;;;;;5048636;28;20048;-77
2022/01/24 08:25:12;;;;;;;68.17;32.83;;;5.30;99.90;;;;;;5031418;28;20056;-78
2022/01/24 08:27:39;;;;;;;71.73;34.37;;;5.30;99.90;;;;;;5015972;28;21374;-76
2022/01/24 08:30:08;;;;;;;75.93;34.40;;;5.40;99.90;;;;;;5030636;28;20048;-76
2022/01/24 08:32:34;;;;;;;68.03;33.27;;;5.40;99.90;;;;;;5032143;28;20037;-77
2022/01/24 08:35:00;;;;;;;70.40;33.10;;;5.40;99.90;;;;;;5075209;28;20105;-77
2022/01/24 08:37:27;;;;;;;70.73;34.57;;;5.40;99.90;;;;;;5032307;28;20083;-76
2022/01/24 08:39:52;;;;;;;70.13;32.93;;;5.40;99.90;;;;;;5029963;28;20056;-74
2022/01/24 08:43:03;;;;;;;72.17;33.70;;;5.50;99.90;;;;;;5031953;28;20065;-79
2022/01/24 08:47:53;;;;;;;75.60;36.27;;;5.50;99.90;;;;;;5048266;28;20336;-76
2022/01/24 08:50:25;;;;;;;74.17;34.63;;;5.50;99.90;;;;;;5015905;28;20045;-77
2022/01/24 08:52:51;;;;;;;74.40;35.80;;;5.50;99.90;;;;;;5031608;28;20049;-76
2022/01/24 08:55:17;;;;;;;75.13;36.03;;;5.50;99.90;;;;;;5048651;28;20120;-78
2022/01/24 08:57:42;;;;;;;77.03;35.37;;;5.50;99.90;;;;;;5031539;28;20080;-77
2022/01/24 09:00:09;;;;;;;78.80;37.33;;;5.50;99.90;;;;;;5030888;28;20576;-76
2022/01/24 09:02:35;;;;;;;82.10;37.00;;;5.50;99.90;;;;;;5048853;28;20033;-76
2022/01/24 09:05:02;;;;;;;80.90;38.37;;;5.50;99.90;;;;;;5030791;28;20043;-77
2022/01/24 09:07:30;;;;;;;79.57;38.43;;;5.60;99.90;;;;;;5031868;28;20088;-77
2022/01/24 09:09:57;;;;;;;77.80;38.43;;;5.60;99.90;;;;;;5048927;28;20839;-76
2022/01/24 09:12:23;;;;;;;77.53;38.43;;;5.60;99.90;;;;;;5016108;28;20048;-77
2022/01/24 09:14:49;;;;;;;71.03;37.33;;;5.60;99.90;;;;;;5032839;28;20041;-76
2022/01/24 09:17:15;;;;;;;80.93;38.27;;;5.60;99.90;;;;;;5016234;28;20052;-77
2022/01/24 09:19:42;;;;;;;80.67;39.40;;;5.60;99.90;;;;;;5032003;28;20508;-76
2022/01/24 09:22:08;;;;;;;84.90;40.97;;;5.60;99.90;;;;;;5032857;28;20052;-76
2022/01/24 09:24:34;;;;;;;77.87;38.63;;;5.60;99.90;;;;;;5031356;28;20049;-77
2022/01/24 09:27:00;;;;;;;80.07;39.80;;;5.60;99.90;;;;;;5048815;28;20048;-77
2022/01/24 09:29:26;;;;;;;81.93;38.47;;;5.60;99.90;;;;;;5048761;28;20175;-77
2022/01/24 09:31:52;;;;;;;78.17;40.00;;;5.60;99.90;;;;;;5032195;28;20049;-76
2022/01/24 09:34:20;;;;;;;76.47;39.37;;;5.60;99.90;;;;;;5023187;28;20059;-76
2022/01/24 09:36:47;;;;;;;83.97;40.30;;;5.70;99.90;;;;;;5047431;28;20335;-76
2022/01/24 09:39:14;;;;;;;76.73;38.83;;;5.70;99.90;;;;;;5030010;28;20053;-77
2022/01/24 09:41:40;;;;;;;81.40;39.83;;;5.70;99.90;;;;;;5024319;28;20037;-77
2022/01/24 09:44:06;;;;;;;77.50;37.60;;;5.70;99.90;;;;;;5014215;28;20037;-76
2022/01/24 09:46:35;;;;;;;78.27;38.50;;;5.70;99.90;;;;;;5013790;28;20071;-76
2022/01/24 09:49:01;;;;;;;77.57;38.97;;;5.70;99.90;;;;;;5030921;28;20041;-79
2022/01/24 09:51:27;;;;;;;77.03;40.93;;;5.70;99.90;;;;;;5071356;28;20040;-87
2022/01/24 09:53:53;;;;;;;79.03;39.27;;;5.80;99.90;;;;;;5015324;28;20098;-76
2022/01/24 09:56:19;;;;;;;80.70;40.40;;;5.80;99.90;;;;;;5047173;28;20041;-77
2022/01/24 09:58:45;;;;;;;79.27;39.77;;;5.80;99.90;;;;;;5039773;28;20171;-77
2022/01/24 10:01:13;;;;;;;78.57;38.43;;;5.70;99.90;;;;;;5018166;28;20046;-76
2022/01/24 10:04:17;;;;;;;82.30;40.53;;;5.80;99.90;;;;;;5077229;28;20049;-78
2022/01/24 10:07:12;;;;;;;82.93;41.13;;;5.80;99.90;;;;;;5031367;28;20072;-77
2022/01/24 10:09:41;;;;;;;80.97;38.17;;;5.80;99.90;;;;;;5030326;28;20053;-77
2022/01/24 10:16:25;;;;;;;77.47;38.13;;;5.80;99.90;;;;;;5030400;28;20083;-77
2022/01/24 10:18:01;;;;;;;77.72;38.28;;;5.80;99.90;;;;;;5047338;28;20044;-77
2022/01/24 10:20:33;;;;;;;75.78;38.20;;;5.80;99.90;;;;;;5030978;28;20036;-77
2022/01/24 10:23:11;;;;;;;80.03;39.20;;;5.80;99.90;;;;;;5048453;28;20051;-77
2022/01/24 10:25:49;;;;;;;75.33;37.90;;;5.80;99.90;;;;;;5029606;28;20342;-77
2022/01/24 10:28:43;;;;;;;77.53;37.83;;;5.80;99.90;;;;;;5045864;28;20041;-77
2022/01/24 10:31:16;;;;;;;76.50;37.70;;;5.80;99.90;;;;;;5027488;28;20068;-78
2022/01/24 10:33:52;;;;;;;79.97;39.47;;;5.80;99.90;;;;;;5045554;28;20041;-78
2022/01/24 10:36:39;;;;;;;76.30;37.77;;;5.90;99.90;;;;;;5030322;28;20047;-77
2022/01/24 10:39:15;;;;;;;80.20;38.57;;;5.90;99.90;;;;;;5029756;28;20143;-77
2022/01/24 10:44:33;;;;;;;80.37;38.93;;;5.90;99.90;;;;;;5048451;28;20041;-77
2022/01/24 10:47:13;;;;;;;;;;;5.90;99.90;;;;;;5029812;28;20044;-77
2022/01/24 10:49:40;;;;;;;77.73;37.53;;;5.90;99.90;;;;;;5066089;28;19925;-77
2022/01/24 10:52:27;;;;;;;77.03;37.67;;;5.90;99.90;;;;;;5030160;28;20048;-77
2022/01/24 10:55:10;;;;;;;75.43;37.37;;;5.90;99.90;;;;;;5030280;28;20057;-77
2022/01/24 10:57:36;;;;;;;76.20;37.13;;;5.90;99.90;;;;;;5029161;28;20049;-77
2022/01/24 11:00:15;;;;;;;78.23;37.63;;;5.90;99.90;;;;;;5025398;28;20098;-76
2022/01/24 11:02:45;;;;;;;82.13;38.47;;;6.00;99.90;;;;;;5032541;28;20049;-76
2022/01/24 11:05:15;;;;;;;76.60;37.73;;;6.00;99.90;;;;;;5031491;28;20049;-78
2022/01/24 11:07:51;;;;;;;85.20;39.73;;;6.00;99.90;;;;;;5031704;28;20057;-76
2022/01/24 11:10:17;;;;;;;79.70;39.97;;;5.90;99.90;;;;;;5033657;28;20048;-76
2022/01/24 11:12:43;;;;;;;76.80;37.40;;;5.90;99.90;;;;;;5049305;28;20041;-76
2022/01/24 11:15:10;;;;;;;77.63;38.53;;;5.90;99.90;;;;;;5014715;28;20069;-76
2022/01/24 11:17:36;;;;;;;76.80;38.77;;;6.00;99.90;;;;;;5031621;28;20041;-76
2022/01/24 11:20:04;;;;;;;79.60;38.13;;;5.90;99.90;;;;;;5014109;28;20059;-77
2022/01/24 11:22:33;;;;;;;74.47;37.20;;;5.90;99.90;;;;;;5015647;28;20044;-79
2022/01/24 11:25:06;;;;;;;81.53;40.63;;;5.90;99.90;;;;;;5023795;28;20551;-77
2022/01/24 11:27:33;;;;;;;75.83;38.03;;;6.00;99.90;;;;;;5004555;28;20048;-78
2022/01/24 11:30:06;;;;;;;82.57;39.97;;;6.00;99.90;;;;;;5072589;28;20071;-77
2022/01/24 11:32:38;;;;;;;82.73;40.00;;;5.90;99.90;;;;;;5040445;28;20053;-78
2022/01/24 11:35:04;;;;;;;;;;;6.00;99.90;;;;;;5057168;28;20049;-77
2022/01/24 11:37:46;;;;;;;81.90;37.87;;;6.00;99.90;;;;;;5039521;28;19925;-78
2022/01/24 11:40:16;;;;;;;67.43;35.03;;;6.00;99.90;;;;;;5072368;28;20102;-79
2022/01/24 11:42:46;;;;;;;76.23;39.33;;;6.00;99.90;;;;;;5071812;28;20292;-78
2022/01/24 11:45:15;;;;;;;81.07;39.77;;;6.00;99.90;;;;;;5057145;28;20044;-78
2022/01/24 11:47:46;;;;;;;79.03;37.03;;;6.00;99.90;;;;;;5038776;28;20039;-77
2022/01/24 11:50:41;;;;;;;78.03;36.60;;;6.00;99.90;;;;;;5053094;28;20550;-77
2022/01/24 11:53:28;;;;;;;73.87;38.50;;;5.90;99.90;;;;;;5065312;28;20424;-77
2022/01/24 11:55:55;;;;;;;74.90;38.60;;;5.90;99.90;;;;;;5055113;28;20084;-78
2022/01/24 11:58:32;;;;;;;81.43;38.90;;;5.90;99.90;;;;;;5051973;28;20041;-78
2022/01/24 12:01:03;;;;;;;77.90;38.60;;;6.00;99.90;;;;;;5053433;28;20140;-77
2022/01/24 12:03:30;;;;;;;77.15;37.40;;;5.90;99.90;;;;;;5054549;28;20529;-78
2022/01/24 12:05:58;;;;;;;79.07;38.97;;;6.00;99.90;;;;;;5073213;28;20164;-78
2022/01/24 12:08:42;;;;;;;76.87;38.60;;;6.00;99.90;;;;;;5049119;28;20057;-77
2022/01/24 12:11:30;;;;;;;78.70;38.53;;;6.00;99.90;;;;;;5047276;28;20077;-89
2022/01/24 12:14:02;;;;;;;81.87;39.10;;;6.00;99.90;;;;;;5015152;28;20049;-84
2022/01/24 12:16:42;;;;;;;83.17;37.70;;;6.00;99.90;;;;;;5013182;28;20068;-79
2022/01/24 12:19:10;;;;;;;82.20;39.53;;;6.00;99.90;;;;;;5011300;28;20078;-77
2022/01/24 12:21:41;;;;;;;71.10;35.83;;;6.00;99.90;;;;;;5029547;28;20080;-78
2022/01/24 12:24:14;;;;;;;79.15;38.40;;;6.00;99.90;;;;;;5030670;28;20521;-78
2022/01/24 12:26:42;;;;;;;79.67;39.80;;;6.00;99.90;;;;;;5012282;28;20048;-78
2022/01/24 12:29:10;;;;;;;82.73;40.33;;;6.00;99.90;;;;;;5046066;28;20053;-76
2022/01/24 12:31:45;;;;;;;77.90;37.97;;;6.00;99.90;;;;;;5030021;28;20049;-77
2022/01/24 12:34:27;;;;;;;79.03;39.97;;;6.00;99.90;;;;;;5030219;28;20109;-77
2022/01/24 12:37:00;;;;;;;73.22;36.92;;;6.00;99.90;;;;;;5031498;28;20045;-77
2022/01/24 12:39:57;;;;;;;81.33;38.80;;;6.00;99.90;;;;;;5029495;28;20053;-77
2022/01/24 12:42:39;;;;;;;78.03;38.23;;;6.00;99.90;;;;;;5030456;28;20071;-76
2022/01/24 12:47:55;;;;;;;74.77;35.83;;;6.00;99.90;;;;;;5048351;28;21650;-84
2022/01/24 12:50:23;;;;;;;71.73;34.43;;;6.00;99.90;;;;;;5029782;28;20059;-78
2022/01/24 12:52:49;;;;;;;74.33;36.33;;;6.00;99.90;;;;;;5029976;28;20053;-78
2022/01/24 12:55:15;;;;;;;71.50;35.73;;;6.00;99.90;;;;;;5011514;28;20044;-78
2022/01/24 12:57:42;;;;;;;78.73;38.93;;;6.00;99.90;;;;;;5013419;28;20032;-78
2022/01/24 13:00:13;;;;;;;83.00;40.23;;;6.00;99.90;;;;;;5028009;28;20044;-78
2022/01/24 13:02:39;;;;;;;75.90;37.17;;;5.90;99.90;;;;;;5028988;28;20041;-78
2022/01/24 13:05:12;;;;;;;77.63;37.87;;;5.90;99.90;;;;;;5029183;28;20071;-78
2022/01/24 13:07:40;;;;;;;74.50;37.27;;;5.90;99.90;;;;;;5045190;28;20507;-78
2022/01/24 13:10:07;;;;;;;72.57;37.40;;;5.90;99.90;;;;;;5027786;28;20049;-78
2022/01/24 13:12:34;;;;;;;70.03;36.27;;;5.90;99.90;;;;;;5027976;28;20045;-78
2022/01/24 13:15:04;;;;;;;74.30;36.87;;;5.80;99.90;;;;;;5045621;28;20083;-81
2022/01/24 13:25:26;;;;;;;76.03;38.50;;;5.80;99.90;;;;;;5036771;28;20075;-78
2022/01/24 13:27:56;;;;;;;80.30;40.33;;;5.90;99.90;;;;;;5038626;28;20925;-78
2022/01/24 13:30:24;;;;;;;77.07;37.57;;;5.90;99.90;;;;;;5017639;28;20044;-78
2022/01/24 13:32:57;;;;;;;71.73;37.47;;;5.80;99.90;;;;;;5038370;28;20076;-77
2022/01/24 13:35:39;;;;;;;68.93;35.23;;;5.80;99.90;;;;;;5044473;28;20128;-78
2022/01/24 13:38:27;;;;;;;73.30;34.80;;;5.80;99.90;;;;;;5037421;28;20033;-78
2022/01/24 13:41:04;;;;;;;73.37;35.67;;;5.80;99.90;;;;;;5027315;28;20094;-78
2022/01/24 13:43:35;;;;;;;74.83;37.20;;;5.90;99.90;;;;;;5027170;28;20045;-79
2022/01/24 13:46:08;;;;;;;76.63;38.35;;;5.90;99.90;;;;;;5026677;28;20049;-79
2022/01/24 13:48:42;;;;;;;69.30;34.87;;;5.80;99.90;;;;;;5012071;28;20049;-77
2022/01/24 13:51:09;;;;;;;76.00;37.57;;;5.90;99.90;;;;;;5041197;28;20041;-78
2022/01/24 13:53:44;;;;;;;71.03;35.37;;;5.90;99.90;;;;;;5011772;28;20048;-78
2022/01/24 13:56:31;;;;;;;69.97;35.73;;;5.80;99.90;;;;;;5027349;28;20508;-79
2022/01/24 13:59:01;;;;;;;71.40;35.27;;;5.90;99.90;;;;;;5047736;28;20072;-78
2022/01/24 14:01:27;;;;;;;73.73;35.63;;;5.80;99.90;;;;;;5029547;28;20135;-80
2022/01/24 14:04:01;;;;;;;71.23;36.20;;;5.80;99.90;;;;;;5015349;28;20064;-78
2022/01/24 14:06:34;;;;;;;74.37;36.80;;;5.80;99.90;;;;;;5047132;28;20057;-84
2022/01/24 14:09:11;;;;;;;75.27;36.53;;;5.80;99.90;;;;;;5030198;28;20057;-78
2022/01/24 14:11:42;;;;;;;71.47;35.57;;;5.80;99.90;;;;;;5029014;28;20049;-77
2022/01/24 14:14:12;;;;;;;72.75;37.08;;;5.80;99.90;;;;;;5058266;28;20726;-77
2022/01/24 14:16:56;;;;;;;70.70;36.37;;;5.70;99.90;;;;;;5040517;28;20052;-76
2022/01/24 14:19:33;;;;;;;68.37;34.00;;;5.70;99.90;;;;;;5016445;28;20140;-77
2022/01/24 14:22:12;;;;;;;68.20;34.67;;;5.70;99.90;;;;;;5079488;28;20048;-77
2022/01/24 14:24:57;;;;;;;70.50;34.07;;;5.70;99.90;;;;;;5030249;28;20104;-77
2022/01/24 14:27:36;;;;;;;63.73;32.90;;;5.70;99.90;;;;;;5029814;28;20052;-77
2022/01/24 14:30:12;;;;;;;68.53;35.70;;;5.70;99.90;;;;;;5030349;28;20044;-76
2022/01/24 14:32:57;;;;;;;63.80;32.80;;;5.70;99.90;;;;;;5030246;28;20087;-76
2022/01/24 14:35:23;;;;;;;65.47;33.97;;;5.60;99.90;;;;;;5016948;28;20752;-76
2022/01/24 14:37:51;;;;;;;68.13;34.57;;;5.60;99.90;;;;;;5029985;28;20116;-75
2022/01/24 14:40:35;;;;;;;68.70;34.80;;;5.60;99.90;;;;;;5031175;28;20048;-77
2022/01/24 14:45:47;;;;;;;68.27;34.57;;;5.60;99.90;;;;;;5046003;28;20045;-76
2022/01/24 14:48:13;;;;;;;67.83;34.73;;;5.70;99.90;;;;;;5046262;28;20048;-76